Time;durP1;ratioP1;P1;durP2;ratioP2;P2;SDS_P1;SDS_P2;PMS_P1;PMS_P2;Temp;Humidity;BMP_temperature;BMP_pressure;BME280_temperature;BME280_humidity;BME280_pressure;Samples;Min_cycle;Max_cycle;Signal;HPM_P1;HPM_P2
2023/06/22 00:01:23;;;;;;;18.55;7.57;;;;;;;29.57;51.28;98361.72;4442816;32;20393;-84
2023/06/22 00:03:51;;;;;;;16.40;7.07;;;;;;;29.47;51.77;98361.94;4442562;32;20093;-84
2023/06/22 00:06:18;;;;;;;14.57;6.80;;;;;;;29.62;51.53;98360.19;4442976;32;20143;-84
2023/06/22 00:08:44;;;;;;;16.15;7.43;;;;;;;30.42;48.04;98356.94;4442756;32;20081;-84
2023/06/22 00:11:11;;;;;;;17.92;7.25;;;;;;;29.77;50.09;98362.03;4442376;32;20106;-84
2023/06/22 00:13:39;;;;;;;15.82;7.37;;;;;;;29.63;50.64;98364.50;4442408;32;20156;-84
2023/06/22 00:16:06;;;;;;;17.45;7.80;;;;;;;29.73;50.61;98353.59;4442393;32;20085;-84
2023/06/22 00:18:33;;;;;;;12.13;6.93;;;;;;;29.39;50.71;98351.38;4442239;32;20066;-84
2023/06/22 00:21:00;;;;;;;12.77;6.78;;;;;;;30.28;48.52;98356.91;4442771;32;20097;-84
2023/06/22 00:23:27;;;;;;;15.77;7.12;;;;;;;30.56;48.08;98349.13;4442511;32;20111;-84
2023/06/22 00:25:54;;;;;;;15.02;6.28;;;;;;;30.13;48.50;98347.09;4443156;32;20085;-84
2023/06/22 00:28:21;;;;;;;16.00;6.07;;;;;;;30.39;47.42;98337.81;4443044;32;20085;-83
2023/06/22 00:30:49;;;;;;;18.87;6.47;;;;;;;29.80;48.83;98338.59;4442847;32;20222;-84
2023/06/22 00:33:16;;;;;;;14.27;6.22;;;;;;;29.36;49.74;98343.75;4442482;32;20119;-84
2023/06/22 00:35:43;;;;;;;14.90;5.43;;;;;;;29.35;50.09;98344.75;4442972;32;20093;-84
2023/06/22 00:38:11;;;;;;;13.07;4.35;;;;;;;28.92;48.44;98336.38;4442859;32;20111;-83
2023/06/22 00:40:38;;;;;;;14.55;4.45;;;;;;;28.74;46.55;98330.50;4443074;32;20106;-84
2023/06/22 00:43:05;;;;;;;14.68;4.20;;;;;;;27.98;47.70;98341.66;4443333;32;20145;-84
2023/06/22 00:45:33;;;;;;;11.43;4.75;;;;;;;28.16;47.48;98340.44;4443538;32;20100;-84
2023/06/22 00:48:00;;;;;;;15.13;5.53;;;;;;;27.89;49.19;98333.72;4444182;32;20156;-84
2023/06/22 00:50:35;;;;;;;17.70;5.68;;;;;;;27.02;52.21;98337.00;4443986;32;20065;-84
2023/06/22 00:53:10;;;;;;;14.05;5.28;;;;;;;26.01;55.46;98334.19;4443342;32;20088;-84
2023/06/22 00:55:43;;;;;;;14.87;4.80;;;;;;;26.38;54.75;98343.69;4443917;32;20097;-84
2023/06/22 00:58:10;;;;;;;14.23;4.95;;;;;;;27.15;52.19;98332.03;4443272;32;20772;-84
2023/06/22 01:00:41;;;;;;;14.15;5.03;;;;;;;27.76;51.07;98338.72;4443014;32;20058;-84
2023/06/22 01:03:09;;;;;;;14.38;5.20;;;;;;;28.23;49.78;98343.25;4443420;32;20117;-84
2023/06/22 01:05:38;;;;;;;13.75;4.90;;;;;;;27.94;50.90;98344.63;4443411;32;20100;-84
2023/06/22 01:08:22;;;;;;;13.32;4.85;;;;;;;27.17;53.84;98339.81;4442180;32;20103;-84
2023/06/22 01:10:58;;;;;;;12.05;5.15;;;;;;;26.93;54.76;98343.22;4429642;32;20109;-84
2023/06/22 01:13:35;;;;;;;15.43;6.00;;;;;;;27.05;55.47;98347.25;4443166;32;20452;-84
2023/06/22 01:16:02;;;;;;;14.60;5.47;;;;;;;27.24;55.44;98339.00;4429602;32;20165;-84
2023/06/22 01:18:31;;;;;;;12.45;5.82;;;;;;;27.61;54.56;98348.28;4443383;32;20100;-83
2023/06/22 01:20:58;;;;;;;14.73;6.30;;;;;;;26.63;57.84;98340.16;4429419;32;20109;-84
2023/06/22 01:23:40;;;;;;;13.57;6.05;;;;;;;26.83;57.72;98343.34;4429542;32;20529;-84
2023/06/22 01:26:17;;;;;;;16.45;6.87;;;;;;;27.05;57.84;98345.44;4443773;32;20160;-84
2023/06/22 01:28:51;;;;;;;20.92;6.45;;;;;;;27.30;57.24;98343.62;4443078;32;20076;-83
2023/06/22 01:31:20;;;;;;;16.00;6.53;;;;;;;27.04;58.15;98338.47;4429316;32;20119;-84
2023/06/22 01:33:54;;;;;;;16.17;6.32;;;;;;;27.80;56.17;98340.03;4428540;32;20109;-83
2023/06/22 01:36:22;;;;;;;15.77;6.70;;;;;;;28.04;55.52;98338.31;4429201;32;20495;-84
2023/06/22 01:38:50;;;;;;;14.60;6.40;;;;;;;27.62;57.55;98345.47;4442732;32;20090;-84
2023/06/22 01:41:17;;;;;;;16.52;7.12;;;;;;;27.61;57.93;98346.47;4429048;32;20160;-83
2023/06/22 01:43:45;;;;;;;21.52;8.00;;;;;;;27.54;59.11;98344.63;4442782;32;20074;-84
2023/06/22 01:46:12;;;;;;;21.10;7.57;;;;;;;28.29;56.85;98344.44;4442840;32;20077;-84
2023/06/22 01:48:39;;;;;;;15.60;7.20;;;;;;;27.92;58.96;98349.28;4428557;32;20129;-84
2023/06/22 01:51:07;;;;;;;16.02;7.60;;;;;;;27.77;59.69;98339.53;4442609;32;20098;-84
2023/06/22 01:53:33;;;;;;;16.02;7.72;;;;;;;27.60;60.18;98342.16;4428708;32;20494;-84
2023/06/22 01:56:00;;;;;;;14.98;7.68;;;;;;;26.24;65.78;98348.53;4442022;32;20107;-84
2023/06/22 01:58:29;;;;;;;15.80;7.25;;;;;;;27.71;59.99;98353.44;4442049;32;20077;-83
2023/06/22 02:01:03;;;;;;;20.33;7.75;;;;;;;28.16;55.98;98353.72;4428634;32;20105;-84
2023/06/22 02:03:35;;;;;;;18.00;7.18;;;;;;;28.21;54.65;98358.53;4441722;32;20108;-84
2023/06/22 02:06:15;;;;;;;17.23;7.47;;;;;;;27.96;55.37;98358.56;4428377;32;20078;-84
2023/06/22 02:08:47;;;;;;;17.00;7.47;;;;;;;27.64;56.42;98356.72;4427758;32;20073;-83
2023/06/22 02:11:16;;;;;;;17.37;7.80;;;;;;;27.05;59.40;98353.38;4441843;32;20143;-84
2023/06/22 02:13:44;;;;;;;16.40;7.65;;;;;;;27.27;58.69;98351.91;4427774;32;20160;-84
2023/06/22 02:16:11;;;;;;;25.80;8.32;;;;;;;27.83;56.77;98355.59;4441219;32;20621;-84
2023/06/22 02:18:40;;;;;;;16.23;7.35;;;;;;;28.86;53.32;98360.97;4441652;32;20429;-83
2023/06/22 02:21:07;;;;;;;18.62;7.60;;;;;;;28.70;53.69;98361.03;4442010;32;20105;-84
2023/06/22 02:23:35;;;;;;;15.63;6.97;;;;;;;28.18;54.72;98370.31;4441327;32;20149;-83
2023/06/22 02:26:03;;;;;;;18.27;7.70;;;;;;;28.13;54.50;98367.31;4441694;32;20081;-84
2023/06/22 02:28:30;;;;;;;21.42;8.07;;;;;;;27.44;57.68;98358.06;4441577;32;20078;-83
2023/06/22 02:30:57;;;;;;;22.40;8.20;;;;;;;27.73;56.58;98351.47;4441107;32;20107;-84
2023/06/22 02:33:24;;;;;;;16.50;7.62;;;;;;;27.25;58.12;98343.31;4441161;32;20101;-84
2023/06/22 02:35:51;;;;;;;19.10;8.13;;;;;;;27.49;57.84;98350.44;4441284;32;20097;-84
2023/06/22 02:38:19;;;;;;;18.15;7.68;;;;;;;27.99;56.62;98345.97;4441052;32;20107;-83
2023/06/22 02:40:46;;;;;;;15.95;7.53;;;;;;;27.65;57.86;98350.50;4441110;32;20062;-84
2023/06/22 02:43:13;;;;;;;22.55;8.00;;;;;;;27.79;57.59;98350.81;4441181;32;20531;-84
2023/06/22 02:45:40;;;;;;;17.95;8.15;;;;;;;28.43;54.96;98349.03;4441274;32;20086;-84
2023/06/22 02:48:07;;;;;;;24.37;8.65;;;;;;;28.70;53.69;98335.31;4441297;32;20102;-84
2023/06/22 02:50:34;;;;;;;19.37;8.52;;;;;;;28.61;54.01;98341.66;4441166;32;20120;-83
2023/06/22 02:53:01;;;;;;;20.50;7.72;;;;;;;27.87;55.50;98348.16;4440879;32;20083;-84
2023/06/22 02:55:27;;;;;;;18.10;9.60;;;;;;;27.65;56.82;98341.72;4440932;32;20073;-84
2023/06/22 02:57:54;;;;;;;18.77;8.45;;;;;;;27.08;58.84;98349.56;4441122;32;20124;-84
2023/06/22 03:00:23;;;;;;;18.92;9.02;;;;;;;27.12;59.87;98353.56;4425940;32;20139;-84
2023/06/22 03:02:50;;;;;;;19.33;9.73;;;;;;;25.81;66.35;98356.50;4426387;32;20165;-84
2023/06/22 03:05:18;;;;;;;21.62;10.40;;;;;;;25.44;69.72;98354.06;4426020;32;20444;-84
2023/06/22 03:07:45;;;;;;;19.67;9.63;;;;;;;25.80;68.27;98352.22;4426888;32;20086;-84
2023/06/22 03:10:14;;;;;;;22.25;10.00;;;;;;;25.07;71.97;98355.84;4426594;32;20149;-84
2023/06/22 03:12:41;;;;;;;21.27;9.23;;;;;;;25.67;69.12;98352.59;4426492;32;20338;-84
2023/06/22 03:15:11;;;;;;;20.30;10.23;;;;;;;25.66;68.92;98350.94;4427102;32;20078;-84
2023/06/22 03:17:39;;;;;;;21.25;10.25;;;;;;;25.62;69.84;98347.75;4426875;32;20070;-84
2023/06/22 03:20:11;;;;;;;19.40;10.32;;;;;;;25.31;70.40;98349.97;4426325;32;20112;-84
2023/06/22 03:22:39;;;;;;;20.12;9.43;;;;;;;25.80;68.88;98349.56;4426569;32;20104;-84
2023/06/22 03:25:09;;;;;;;17.60;8.85;;;;;;;26.07;66.90;98351.25;4426816;32;20097;-84
2023/06/22 03:27:37;;;;;;;19.17;9.38;;;;;;;26.39;64.26;98348.00;4426302;32;20069;-84
2023/06/22 03:30:06;;;;;;;18.08;10.05;;;;;;;26.69;62.47;98350.09;4426497;32;20118;-84
2023/06/22 03:32:33;;;;;;;19.27;10.85;;;;;;;26.79;62.93;98347.28;4428418;32;20102;-84
2023/06/22 03:35:02;;;;;;;20.83;8.95;;;;;;;26.60;63.14;98360.81;4427902;32;20425;-84
2023/06/22 03:37:29;;;;;;;20.85;8.70;;;;;;;27.56;59.43;98364.69;4428546;32;20078;-84
2023/06/22 03:39:57;;;;;;;19.05;8.38;;;;;;;28.08;57.25;98368.84;4427821;32;20132;-83
2023/06/22 03:42:24;;;;;;;22.20;7.90;;;;;;;28.35;55.55;98367.63;4428022;32;20746;-84
2023/06/22 03:44:51;;;;;;;18.75;9.18;;;;;;;28.42;55.23;98369.44;4427953;32;20141;-84
2023/06/22 03:47:18;;;;;;;18.48;8.60;;;;;;;28.76;54.01;98363.81;4427995;32;20102;-84
2023/06/22 03:49:45;;;;;;;20.42;9.02;;;;;;;28.13;56.44;98369.16;4427965;32;20110;-84
2023/06/22 03:52:11;;;;;;;19.08;8.80;;;;;;;28.70;54.92;98367.16;4427888;32;20093;-84
2023/06/22 03:54:38;;;;;;;21.50;8.80;;;;;;;28.89;54.36;98365.13;4427618;32;20423;-84
2023/06/22 03:57:05;;;;;;;18.92;9.30;;;;;;;29.19;53.13;98366.12;4428539;32;20140;-84
2023/06/22 03:59:32;;;;;;;18.00;9.07;;;;;;;28.47;55.67;98371.56;4437832;32;20432;-84
2023/06/22 04:01:59;;;;;;;19.80;9.65;;;;;;;28.34;56.79;98366.81;4443088;32;20120;-84
2023/06/22 04:04:27;;;;;;;19.58;9.75;;;;;;;28.92;54.55;98364.75;4443102;32;20525;-84
2023/06/22 04:06:54;;;;;;;17.48;9.27;;;;;;;28.58;56.02;98367.72;4443512;32;20107;-84
2023/06/22 04:09:21;;;;;;;19.12;9.63;;;;;;;28.83;55.45;98365.81;4442754;32;20072;-84
2023/06/22 04:11:48;;;;;;;22.30;10.25;;;;;;;28.38;56.52;98373.41;4443109;32;20093;-84
2023/06/22 04:14:15;;;;;;;25.00;10.95;;;;;;;27.52;58.24;98365.19;4442925;32;20100;-84
2023/06/22 04:16:42;;;;;;;18.62;9.43;;;;;;;28.88;54.49;98363.44;4443383;32;20111;-84
2023/06/22 04:19:15;;;;;;;16.83;9.95;;;;;;;27.20;59.96;98358.03;4443136;32;20093;-84
2023/06/22 04:21:44;;;;;;;25.17;10.27;;;;;;;28.10;57.30;98367.66;4443355;32;20112;-84
2023/06/22 04:24:11;;;;;;;17.05;8.93;;;;;;;28.25;57.02;98365.13;4443243;32;20156;-84
2023/06/22 04:26:41;;;;;;;21.62;9.32;;;;;;;29.27;54.03;98366.06;4443194;32;20073;-84
2023/06/22 04:29:11;;;;;;;19.02;8.80;;;;;;;30.21;50.92;98363.00;4443022;32;20113;-83
2023/06/22 04:31:38;;;;;;;21.58;9.25;;;;;;;29.88;52.83;98364.25;4442932;32;20110;-84
2023/06/22 04:34:06;;;;;;;18.23;9.40;;;;;;;30.29;50.55;98362.06;4442548;32;20081;-84
2023/06/22 04:36:37;;;;;;;20.40;8.85;;;;;;;30.86;48.73;98374.72;4442591;32;20077;-84
2023/06/22 04:39:06;;;;;;;18.75;9.00;;;;;;;30.90;49.09;98375.19;4442477;32;20093;-85
2023/06/22 04:41:41;;;;;;;17.95;9.05;;;;;;;29.85;50.25;98369.97;4442507;32;20144;-85
2023/06/22 04:44:25;;;;;;;18.60;8.23;;;;;;;31.60;46.18;98380.69;4441979;32;20085;-84
2023/06/22 04:47:08;;;;;;;19.27;7.47;;;;;;;32.57;44.62;98384.50;4441987;32;20073;-85
2023/06/22 04:49:40;;;;;;;18.02;7.85;;;;;;;33.44;43.11;98384.66;4441630;32;20565;-85
2023/06/22 04:52:08;;;;;;;16.15;7.95;;;;;;;34.42;40.53;98379.53;4441575;32;20075;-85
2023/06/22 04:54:37;;;;;;;18.35;7.22;;;;;;;33.79;40.97;98379.13;4441655;32;20100;-85
2023/06/22 04:57:09;;;;;;;14.10;7.22;;;;;;;34.24;40.20;98388.16;4441677;32;20069;-85
2023/06/22 04:59:38;;;;;;;19.30;7.20;;;;;;;33.59;41.45;98371.91;4442180;32;20128;-85
2023/06/22 05:02:06;;;;;;;19.87;6.78;;;;;;;32.59;43.50;98377.94;4441788;32;20108;-85
2023/06/22 05:04:34;;;;;;;15.73;6.70;;;;;;;33.34;42.14;98373.50;4441715;32;20089;-85
2023/06/22 05:07:02;;;;;;;17.58;7.25;;;;;;;33.94;41.06;98385.13;4441544;32;20137;-85
2023/06/22 05:09:29;;;;;;;16.27;6.70;;;;;;;34.44;39.81;98382.81;4441157;32;20117;-85
2023/06/22 05:11:57;;;;;;;14.98;6.03;;;;;;;35.41;37.34;98379.13;4440989;32;20101;-85
2023/06/22 05:14:24;;;;;;;16.17;5.80;;;;;;;34.87;38.10;98377.72;4441523;32;20165;-85
2023/06/22 05:16:51;;;;;;;16.42;6.60;;;;;;;34.60;38.61;98393.09;4441319;32;20418;-85
2023/06/22 05:19:18;;;;;;;14.27;6.47;;;;;;;31.76;44.47;98384.94;4440651;32;20109;-85
2023/06/22 05:21:45;;;;;;;12.07;6.57;;;;;;;33.56;41.66;98391.03;4441110;32;20137;-85
2023/06/22 05:24:12;;;;;;;16.10;6.62;;;;;;;33.31;41.52;98381.94;4441210;32;20085;-85
2023/06/22 05:26:39;;;;;;;13.13;6.62;;;;;;;33.41;41.57;98382.41;4440611;32;20141;-85
2023/06/22 05:29:06;;;;;;;16.10;7.15;;;;;;;32.94;41.75;98386.75;4440278;32;20093;-85
2023/06/22 05:31:33;;;;;;;13.13;6.12;;;;;;;33.24;41.30;98384.59;4440691;32;20787;-86
2023/06/22 05:34:00;;;;;;;15.05;5.97;;;;;;;33.51;41.18;98380.16;4440217;32;20101;-85
2023/06/22 05:36:27;;;;;;;15.23;6.05;;;;;;;33.63;40.86;98386.53;4440477;32;20153;-86
2023/06/22 05:38:57;;;;;;;11.80;5.75;;;;;;;34.36;38.89;98396.41;4440697;32;20754;-85
2023/06/22 05:41:23;;;;;;;17.00;6.03;;;;;;;34.93;37.60;98390.31;4440396;32;20176;-85
2023/06/22 05:43:50;;;;;;;15.98;5.57;;;;;;;34.82;37.07;98385.56;4440686;32;20097;-85
2023/06/22 05:46:18;;;;;;;12.37;6.10;;;;;;;34.50;37.99;98382.81;4440501;32;20130;-85
2023/06/22 05:48:45;;;;;;;18.90;6.85;;;;;;;35.15;36.28;98382.78;4440592;32;20108;-85
2023/06/22 05:51:12;;;;;;;12.48;6.00;;;;;;;35.85;35.61;98383.56;4440465;32;20573;-86
2023/06/22 05:53:39;;;;;;;14.80;6.07;;;;;;;34.67;37.83;98380.50;4439607;32;20113;-85
2023/06/22 05:56:06;;;;;;;13.05;5.95;;;;;;;34.64;37.67;98380.91;4440760;32;20142;-85
2023/06/22 05:58:33;;;;;;;14.60;6.93;;;;;;;35.16;36.97;98375.53;4442617;32;20169;-84
2023/06/22 06:01:00;;;;;;;13.90;6.28;;;;;;;34.61;38.39;98375.97;4441951;32;20144;-84
2023/06/22 06:03:28;;;;;;;15.65;6.90;;;;;;;33.94;40.10;98369.06;4441230;32;20124;-84
2023/06/22 06:05:55;;;;;;;14.73;6.80;;;;;;;34.35;39.62;98373.31;4440451;32;20077;-85
2023/06/22 06:08:22;;;;;;;14.93;7.22;;;;;;;34.20;40.08;98382.41;4426433;32;20102;-85
2023/06/22 06:10:49;;;;;;;13.45;7.00;;;;;;;35.51;37.86;98378.66;4441008;32;20109;-86
2023/06/22 06:13:16;;;;;;;14.35;6.95;;;;;;;35.14;37.52;98380.31;4440858;32;20485;-86
2023/06/22 06:15:43;;;;;;;16.98;6.87;;;;;;;35.82;36.96;98377.78;4440695;32;20071;-84
2023/06/22 06:18:10;;;;;;;15.65;7.22;;;;;;;35.44;36.68;98381.41;4440849;32;20148;-83
2023/06/22 06:20:37;;;;;;;15.05;7.40;;;;;;;35.26;36.97;98370.53;4440539;32;20372;-85
2023/06/22 06:23:04;;;;;;;13.73;7.50;;;;;;;34.97;37.49;98370.06;4440268;32;20089;-85
2023/06/22 06:25:31;;;;;;;12.95;6.90;;;;;;;34.91;37.69;98372.78;4440714;32;20085;-85
2023/06/22 06:27:58;;;;;;;13.15;6.90;;;;;;;36.23;35.32;98375.38;4440596;32;20093;-84
2023/06/22 06:30:25;;;;;;;16.62;6.97;;;;;;;37.22;34.14;98381.50;4440003;32;20161;-82
2023/06/22 06:32:52;;;;;;;16.52;8.15;;;;;;;36.49;35.15;98377.00;4440716;32;20168;-88
2023/06/22 06:35:19;;;;;;;14.38;7.50;;;;;;;34.98;37.26;98374.38;4441098;32;20144;-89
2023/06/22 06:37:49;;;;;;;16.23;7.53;;;;;;;36.26;35.50;98376.78;4442548;32;20161;-89
2023/06/22 06:40:26;;;;;;;20.90;8.20;;;;;;;35.70;36.43;98385.72;4451149;32;20701;-92
2023/06/22 06:42:57;;;;;;;16.30;8.18;;;;;;;35.74;36.48;98376.22;4446990;32;20112;-89
2023/06/22 06:45:25;;;;;;;14.90;8.05;;;;;;;35.84;36.58;98379.22;4444475;32;20083;-90
2023/06/22 06:47:52;;;;;;;18.67;8.13;;;;;;;34.22;39.74;98385.69;4440060;32;20149;-88
2023/06/22 06:50:20;;;;;;;16.23;8.02;;;;;;;33.98;40.02;98381.00;4426962;32;20105;-87
2023/06/22 06:52:47;;;;;;;14.98;8.57;;;;;;;35.16;38.06;98387.09;4425610;32;20173;-87
2023/06/22 06:55:14;;;;;;;17.37;8.48;;;;;;;34.88;38.70;98390.13;4446323;32;20098;-83
2023/06/22 06:57:42;;;;;;;16.48;8.45;;;;;;;35.88;37.22;98391.19;4441817;32;20057;-84
2023/06/22 07:00:13;;;;;;;17.92;7.47;;;;;;;36.58;36.04;98390.97;4441821;32;20477;-83
2023/06/22 07:02:44;;;;;;;17.50;8.15;;;;;;;37.07;36.01;98391.84;4447111;32;20111;-83
2023/06/22 07:05:11;;;;;;;15.23;8.18;;;;;;;36.92;35.09;98403.00;4449208;32;20053;-83
2023/06/22 07:07:39;;;;;;;13.55;8.27;;;;;;;37.79;34.11;98390.00;4455425;32;20098;-84
2023/06/22 07:10:06;;;;;;;17.17;8.23;;;;;;;38.77;32.47;98397.38;4442123;32;20127;-84
2023/06/22 07:12:33;;;;;;;16.83;7.35;;;;;;;38.70;33.12;98390.47;4445056;32;20349;-78
2023/06/22 07:15:02;;;;;;;15.93;8.63;;;;;;;38.50;33.43;98390.84;4446909;32;20077;-80
2023/06/22 07:17:29;;;;;;;16.15;8.15;;;;;;;36.29;36.95;98387.09;4449000;32;20089;-79
2023/06/22 07:20:08;;;;;;;15.18;8.30;;;;;;;36.12;36.98;98384.16;4453587;32;20069;-82
2023/06/22 07:22:35;;;;;;;16.35;8.30;;;;;;;35.57;38.06;98375.94;4454266;32;20062;-83
2023/06/22 07:25:09;;;;;;;14.20;7.90;;;;;;;36.50;36.92;98388.56;4536265;26;20053;-82
2023/06/22 07:27:42;;;;;;;16.80;9.02;;;;;;;37.14;35.78;98383.69;4457396;26;20080;-82
2023/06/22 07:30:11;;;;;;;19.33;9.32;;;;;;;36.66;36.45;98379.06;4454433;32;20110;-81
2023/06/22 07:32:38;;;;;;;19.50;9.02;;;;;;;35.79;37.52;98371.00;4535499;26;20113;-83
2023/06/22 07:35:06;;;;;;;17.48;8.45;;;;;;;37.12;35.64;98378.53;4448587;32;20154;-83
2023/06/22 07:37:34;;;;;;;16.70;7.87;;;;;;;36.99;36.52;98373.31;4444634;32;20086;-83
2023/06/22 07:40:06;;;;;;;17.27;8.80;;;;;;;36.58;36.99;98366.78;4441586;32;20104;-84
2023/06/22 07:42:33;;;;;;;17.98;8.82;;;;;;;36.97;36.45;98375.41;4428330;32;20463;-84
2023/06/22 07:45:00;;;;;;;18.90;9.77;;;;;;;37.33;35.09;98367.28;4442085;32;20435;-84
2023/06/22 07:47:28;;;;;;;15.70;8.75;;;;;;;38.02;34.44;98366.81;4446000;32;20444;-84
2023/06/22 07:49:58;;;;;;;17.67;8.60;;;;;;;38.53;33.49;98373.38;4443585;32;20738;-84
2023/06/22 07:52:25;;;;;;;14.82;8.38;;;;;;;38.18;34.82;98372.34;4448556;32;20105;-83
2023/06/22 07:54:52;;;;;;;14.40;8.98;;;;;;;37.88;34.47;98364.38;4445507;32;20090;-83
2023/06/22 07:57:20;;;;;;;17.08;9.07;;;;;;;37.71;35.62;98367.94;4447760;32;20153;-84
2023/06/22 07:59:47;;;;;;;14.73;8.93;;;;;;;38.91;33.53;98375.50;4434534;32;20125;-84
2023/06/22 08:02:14;;;;;;;17.37;8.50;;;;;;;38.18;33.84;98366.12;4446759;32;20437;-84
2023/06/22 08:04:41;;;;;;;17.35;8.70;;;;;;;38.55;33.20;98358.59;4441860;32;20112;-84
2023/06/22 08:07:08;;;;;;;14.00;8.52;;;;;;;39.06;32.95;98365.84;4442497;32;20094;-91
2023/06/22 08:09:35;;;;;;;14.80;8.43;;;;;;;39.12;32.46;98357.84;4442477;32;20101;-89
2023/06/22 08:12:02;;;;;;;16.00;9.05;;;;;;;38.79;33.29;98362.06;4441492;32;20089;-89
2023/06/22 08:14:29;;;;;;;14.00;8.52;;;;;;;38.03;34.58;98358.50;4444368;32;20129;-84
2023/06/22 08:16:56;;;;;;;16.08;9.20;;;;;;;37.75;35.29;98356.53;4447012;32;20118;-83
2023/06/22 08:19:23;;;;;;;21.95;9.15;;;;;;;36.26;37.63;98354.47;4449510;32;20121;-83
2023/06/22 08:21:50;;;;;;;17.98;9.75;;;;;;;36.56;37.37;98344.66;4446343;32;20110;-83
2023/06/22 08:24:17;;;;;;;21.77;9.70;;;;;;;37.16;36.96;98362.75;4445759;32;20129;-84
2023/06/22 08:26:44;;;;;;;15.60;9.00;;;;;;;38.55;34.28;98347.81;4448002;32;20111;-83
2023/06/22 08:29:11;;;;;;;15.45;9.98;;;;;;;38.53;34.42;98354.50;4447949;32;20109;-84
2023/06/22 08:31:38;;;;;;;15.25;9.45;;;;;;;37.54;35.47;98357.03;4446689;32;20158;-85
2023/06/22 08:34:05;;;;;;;18.42;9.13;;;;;;;36.50;38.11;98353.63;4444742;32;20466;-83
2023/06/22 08:36:35;;;;;;;13.85;9.30;;;;;;;38.23;34.43;98354.66;4443665;32;20132;-84
2023/06/22 08:39:02;;;;;;;13.48;9.18;;;;;;;37.46;36.82;98352.00;4446638;32;20101;-83
2023/06/22 08:41:30;;;;;;;14.52;9.82;;;;;;;36.71;37.75;98358.56;4451661;32;20072;-83
2023/06/22 08:43:57;;;;;;;28.38;10.68;;;;;;;35.67;39.66;98350.47;4450988;32;20777;-85
2023/06/22 08:46:30;;;;;;;13.93;9.05;;;;;;;36.15;39.14;98347.97;4442445;32;20093;-84
2023/06/22 08:49:00;;;;;;;17.27;10.32;;;;;;;36.68;38.09;98350.09;4427034;32;20105;-84
2023/06/22 08:51:28;;;;;;;14.38;9.50;;;;;;;38.42;35.87;98338.13;4440963;32;20766;-83
2023/06/22 08:53:55;;;;;;;16.12;9.98;;;;;;;39.10;34.76;98346.47;4441809;32;20408;-84
2023/06/22 08:56:22;;;;;;;17.17;10.80;;;;;;;37.70;37.29;98339.37;4440654;32;20102;-85
2023/06/22 08:58:49;;;;;;;14.50;9.98;;;;;;;37.96;37.72;98338.94;4441476;32;20101;-85
2023/06/22 09:01:16;;;;;;;18.23;9.85;;;;;;;38.91;34.42;98337.75;4441067;32;20085;-84
2023/06/22 09:03:43;;;;;;;18.95;9.40;;;;;;;39.43;33.31;98332.22;4441893;32;20145;-83
2023/06/22 09:06:10;;;;;;;16.75;9.73;;;;;;;39.84;32.74;98331.84;4441133;32;20163;-85
2023/06/22 09:08:37;;;;;;;17.77;10.15;;;;;;;40.45;32.19;98331.94;4440962;32;20109;-84
2023/06/22 09:11:04;;;;;;;15.27;8.77;;;;;;;40.14;32.16;98334.19;4440792;32;20082;-85
2023/06/22 09:13:32;;;;;;;17.33;9.77;;;;;;;38.41;34.89;98330.28;4441711;32;20149;-85
2023/06/22 09:15:59;;;;;;;16.25;9.48;;;;;;;38.88;34.36;98332.84;4442957;32;20073;-84
2023/06/22 09:18:26;;;;;;;17.37;9.35;;;;;;;39.19;34.26;98328.84;4442497;32;20080;-82
2023/06/22 09:20:53;;;;;;;18.95;9.77;;;;;;;37.89;35.28;98324.78;4442869;32;20152;-82
2023/06/22 09:23:20;;;;;;;15.38;9.80;;;;;;;37.66;35.71;98328.28;4443456;32;20118;-82
2023/06/22 09:25:47;;;;;;;14.50;9.32;;;;;;;39.02;33.82;98331.47;4443921;32;20085;-83
2023/06/22 09:28:15;;;;;;;21.50;10.18;;;;;;;38.69;33.96;98329.50;4447887;32;20085;-83
2023/06/22 09:30:44;;;;;;;16.73;9.48;;;;;;;39.38;35.44;98337.56;4447156;32;20145;-83
2023/06/22 09:33:11;;;;;;;17.62;9.10;;;;;;;38.82;36.64;98329.25;4446324;32;20072;-84
2023/06/22 09:35:38;;;;;;;24.98;9.73;;;;;;;38.28;36.64;98339.41;4449310;32;20074;-83
2023/06/22 09:38:05;;;;;;;16.27;9.52;;;;;;;37.85;37.07;98334.38;4445790;32;20214;-83
2023/06/22 09:40:39;;;;;;;21.98;9.90;;;;;;;38.67;37.52;98331.63;4442462;32;20114;-84
2023/06/22 09:43:07;;;;;;;16.20;9.10;;;;;;;39.63;34.36;98335.28;4445658;32;20107;-84
2023/06/22 09:45:33;;;;;;;19.15;9.98;;;;;;;38.43;36.66;98337.06;4446177;32;20109;-83
2023/06/22 09:48:00;;;;;;;21.87;9.50;;;;;;;39.51;34.75;98339.94;4444763;32;20057;-84
2023/06/22 09:50:28;;;;;;;18.00;9.98;;;;;;;39.01;35.57;98337.94;4445414;32;20154;-83
2023/06/22 09:52:56;;;;;;;16.75;9.60;;;;;;;36.73;38.15;98340.31;4445225;32;20436;-83
2023/06/22 09:55:23;;;;;;;16.98;9.68;;;;;;;38.23;35.03;98343.88;4443462;32;20357;-83
2023/06/22 09:57:50;;;;;;;15.38;8.18;;;;;;;38.67;35.05;98343.22;4444046;32;20220;-84
2023/06/22 10:00:19;;;;;;;22.73;9.93;;;;;;;38.86;34.95;98335.78;4447303;32;20109;-84
2023/06/22 10:02:46;;;;;;;19.33;9.98;;;;;;;39.58;33.33;98335.22;4432084;32;20061;-84
2023/06/22 10:05:13;;;;;;;16.73;9.60;;;;;;;39.42;33.64;98344.91;4443922;32;20449;-83
2023/06/22 10:07:43;;;;;;;18.50;9.25;;;;;;;39.86;34.02;98340.50;4440334;32;20147;-83
2023/06/22 10:10:11;;;;;;;17.05;9.77;;;;;;;39.88;32.57;98329.47;4440386;32;20168;-83
2023/06/22 10:12:57;;;;;;;15.35;9.77;;;;;;;40.08;32.00;98334.38;4440520;32;20162;-83
2023/06/22 10:15:24;;;;;;;16.17;10.02;;;;;;;40.19;32.05;98333.44;4440491;32;20705;-83
2023/06/22 10:17:51;;;;;;;16.17;10.18;;;;;;;38.60;34.57;98326.38;4440650;32;20345;-83
2023/06/22 10:20:18;;;;;;;15.50;10.35;;;;;;;39.11;34.72;98331.94;4439989;32;20149;-83
2023/06/22 10:22:45;;;;;;;16.12;9.80;;;;;;;38.63;35.21;98323.19;4440019;32;20104;-83
2023/06/22 10:25:13;;;;;;;17.05;10.10;;;;;;;38.63;36.07;98325.88;4440414;32;20120;-82
2023/06/22 10:27:40;;;;;;;16.45;10.38;;;;;;;38.64;35.82;98313.22;4426202;32;20164;-82
2023/06/22 10:30:09;;;;;;;18.70;10.05;;;;;;;38.45;35.89;98317.94;4426354;32;20094;-82
2023/06/22 10:32:38;;;;;;;16.42;10.48;;;;;;;39.29;35.02;98320.94;4439947;32;20517;-82
2023/06/22 10:35:05;;;;;;;17.92;10.57;;;;;;;39.33;34.90;98322.06;4440005;32;20104;-82
2023/06/22 10:37:32;;;;;;;16.30;10.32;;;;;;;40.34;32.02;98313.91;4440272;32;20152;-82
2023/06/22 10:39:59;;;;;;;15.80;9.85;;;;;;;39.34;34.25;98326.41;4439597;32;20444;-81
2023/06/22 10:42:26;;;;;;;17.52;10.57;;;;;;;39.24;35.89;98315.44;4440020;32;20512;-86
2023/06/22 10:44:53;;;;;;;14.15;9.82;;;;;;;38.90;36.04;98317.22;4440169;32;20097;-87
2023/06/22 10:47:20;;;;;;;17.17;10.27;;;;;;;38.06;37.19;98316.81;4440701;32;20089;-81
2023/06/22 10:49:47;;;;;;;16.25;10.13;;;;;;;39.50;34.16;98317.50;4439869;32;20107;-85
2023/06/22 10:52:14;;;;;;;15.52;10.25;;;;;;;38.78;35.16;98314.59;4440143;32;20407;-85
2023/06/22 10:54:41;;;;;;;17.62;11.45;;;;;;;37.77;37.40;98322.09;4440158;32;20090;-85
2023/06/22 10:57:08;;;;;;;13.23;9.80;;;;;;;36.93;39.97;98318.59;4439702;32;20094;-85
2023/06/22 10:59:35;;;;;;;17.00;10.32;;;;;;;36.90;39.08;98316.34;4439861;32;20117;-85
2023/06/22 11:02:02;;;;;;;17.80;11.02;;;;;;;36.75;40.11;98318.59;4439759;32;20081;-85
2023/06/22 11:04:29;;;;;;;14.02;9.27;;;;;;;37.18;39.36;98320.28;4439922;32;20170;-86
2023/06/22 11:06:56;;;;;;;15.63;9.55;;;;;;;37.69;36.85;98316.22;4439993;32;20153;-85
2023/06/22 11:09:23;;;;;;;16.25;10.85;;;;;;;37.09;38.13;98317.09;4441138;32;20468;-85
2023/06/22 11:11:55;;;;;;;16.50;10.18;;;;;;;36.31;39.98;98311.66;4440646;32;20074;-85
2023/06/22 11:14:23;;;;;;;17.10;9.90;;;;;;;36.83;39.43;98310.25;4439807;32;20112;-85
2023/06/22 11:16:50;;;;;;;18.42;10.80;;;;;;;37.41;37.78;98306.91;4439291;32;20352;-86
2023/06/22 11:19:18;;;;;;;17.95;10.80;;;;;;;36.66;38.53;98309.19;4439406;32;20085;-86
2023/06/22 11:21:45;;;;;;;16.37;10.52;;;;;;;37.49;37.95;98306.59;4440312;32;20101;-81
2023/06/22 11:24:12;;;;;;;20.00;10.23;;;;;;;37.81;36.98;98296.34;4439296;32;20164;-82
2023/06/22 11:26:39;;;;;;;18.33;10.05;;;;;;;38.52;37.43;98296.25;4439646;32;20105;-82
2023/06/22 11:29:06;;;;;;;16.17;10.25;;;;;;;38.91;35.84;98298.09;4439416;32;20487;-82